Time;durP1;ratioP1;P1;durP2;ratioP2;P2;SDS_P1;SDS_P2;PMS_P1;PMS_P2;Temp;Humidity;BMP_temperature;BMP_pressure;BME280_temperature;BME280_humidity;BME280_pressure;Samples;Min_cycle;Max_cycle;Signal;HPM_P1;HPM_P2
2024/02/11 00:00:43;;;;;;;;;;;;;;;;;;4939846;28;4953;-58
2024/02/11 00:03:08;;;;;;;;;;;;;;;;;;4956652;28;5095;-57
2024/02/11 00:05:33;;;;;;;;;;;;;;;;;;4964177;28;4539;-58
2024/02/11 00:07:59;;;;;;;;;;;;;;;;;;4961430;28;5060;-59
2024/02/11 00:10:24;;;;;;;;;;;;;;;;;;4964763;28;4586;-57
2024/02/11 00:12:50;;;;;;;;;;;;;;;;;;4960983;28;3443;-58
2024/02/11 00:15:15;;;;;;;;;;;;;;;;;;4967788;28;5179;-58
2024/02/11 00:17:43;;;;;;;;;;;;;;;;;;4967462;28;5030;-56
2024/02/11 00:20:15;;;;;;;;;;;;;;;;;;4961470;28;5088;-57
2024/02/11 00:22:40;;;;;;;;;;;;;;;;;;4960930;28;5130;-57
2024/02/11 00:25:08;;;;;;;;;;;;;;;;;;4959970;28;3912;-59
2024/02/11 00:27:34;;;;;;;;;;;;;;;;;;4957751;28;4487;-58
2024/02/11 00:30:01;;;;;;;;;;;;;;;;;;4964718;28;4990;-59
2024/02/11 00:32:26;;;;;;;;;;;;;;;;;;4962257;28;5194;-57
2024/02/11 00:34:52;;;;;;;;;;;;;;;;;;4948241;28;5331;-57
2024/02/11 00:37:17;;;;;;;;;;;;;;;;;;4960839;28;3703;-57
2024/02/11 00:39:42;;;;;;;;;;;;;;;;;;4958518;28;5087;-57
2024/02/11 00:42:07;;;;;;;;;;;;;;;;;;4964446;28;5142;-57
2024/02/11 00:44:34;;;;;;;;;;;;;;;;;;4958164;28;5304;-58
2024/02/11 00:47:00;;;;;;;;;;;;;;;;;;4958070;28;5094;-59
2024/02/11 00:49:26;;;;;;;;;;;;;;;;;;4963400;28;5091;-57
2024/02/11 00:51:54;;;;;;;;;;;;;;;;;;4964973;28;3250;-56
2024/02/11 00:54:19;;;;;;;;;;;;;;;;;;4961638;28;4586;-60
2024/02/11 00:56:44;;;;;;;;;;;;;;;;;;4962272;28;5312;-57
2024/02/11 00:59:10;;;;;;;;;;;;;;;;;;4963620;28;4722;-57
2024/02/11 01:01:36;;;;;;;;;;;;;;;;;;4966669;28;5210;-57
2024/02/11 01:04:01;;;;;;;;;;;;;;;;;;4963124;28;1241;-58
2024/02/11 01:06:26;;;;;;;;;;;;;;;;;;4962221;28;4689;-57
2024/02/11 01:08:52;;;;;;;;;;;;;;;;;;4958954;28;4532;-59
2024/02/11 01:11:18;;;;;;;;;;;;;;;;;;4962491;28;4573;-57
2024/02/11 01:13:44;;;;;;;;;;;;;;;;;;4948514;28;5119;-57
2024/02/11 01:16:09;;;;;;;;;;;;;;;;;;4959315;28;3501;-57
2024/02/11 01:18:35;;;;;;;;;;;;;;;;;;4967366;28;5146;-58
2024/02/11 01:21:01;;;;;;;;;;;;;;;;;;4967162;28;4685;-57
2024/02/11 01:23:26;;;;;;;;;;;;;;;;;;4958806;28;5186;-57
2024/02/11 01:25:51;;;;;;;;;;;;;;;;;;4963857;28;5115;-57
2024/02/11 01:28:17;;;;;;;;;;;;;;;;;;4963171;28;3413;-57
2024/02/11 01:30:45;;;;;;;;;;;;;;;;;;4961644;28;5168;-57
2024/02/11 01:33:10;;;;;;;;;;;;;;;;;;4961340;28;5061;-58
2024/02/11 01:35:36;;;;;;;;;;;;;;;;;;4961834;28;4757;-57
2024/02/11 01:38:01;;;;;;;;;;;;;;;;;;4958255;28;4702;-57
2024/02/11 01:40:26;;;;;;;;;;;;;;;;;;4969087;28;4955;-57
2024/02/11 01:43:00;;;;;;;;;;;;;;;;;;4968596;28;1088;-57
2024/02/11 01:45:25;;;;;;;;;;;;;;;;;;4966160;28;5125;-56
2024/02/11 01:47:51;;;;;;;;;;;;;;;;;;4964312;28;4666;-57
2024/02/11 01:50:16;;;;;;;;;;;;;;;;;;4956533;28;5045;-57
2024/02/11 01:52:42;;;;;;;;;;;;;;;;;;4967538;28;4554;-57
2024/02/11 01:55:09;;;;;;;;;;;;;;;;;;4972320;28;1014;-57
2024/02/11 01:57:35;;;;;;;;;;;;;;;;;;4946113;28;5063;-57
2024/02/11 02:00:00;;;;;;;;;;;;;;;;;;4959833;28;5098;-57
2024/02/11 02:02:27;;;;;;;;;;;;;;;;;;4964618;28;5132;-57
2024/02/11 02:04:52;;;;;;;;;;;;;;;;;;4959815;28;5072;-58
2024/02/11 02:07:18;;;;;;;;;;;;;;;;;;4958726;28;3459;-59
2024/02/11 02:09:43;;;;;;;;;;;;;;;;;;4966653;28;4971;-57
2024/02/11 02:12:09;;;;;;;;;;;;;;;;;;4940480;29;5040;-58
2024/02/11 02:14:34;;;;;;;;;;;;;;;;;;4966328;28;4724;-57
2024/02/11 02:16:59;;;;;;;;;;;;;;;;;;4969539;28;4491;-58
2024/02/11 02:19:25;;;;;;;;;;;;;;;;;;4962065;28;4951;-57
2024/02/11 02:21:54;;;;;;;;;;;;;;;;;;4966878;28;3372;-58
2024/02/11 02:24:20;;;;;;;;;;;;;;;;;;4967983;28;5046;-57
2024/02/11 02:26:46;;;;;;;;;;;;;;;;;;4962228;28;5114;-58
2024/02/11 02:29:11;;;;;;;;;;;;;;;;;;4963043;28;4642;-58
2024/02/11 02:31:37;;;;;;;;;;;;;;;;;;4968165;28;5131;-57
2024/02/11 02:34:02;;;;;;;;;;;;;;;;;;4965893;28;3424;-58
2024/02/11 02:36:27;;;;;;;;;;;;;;;;;;4963997;28;5155;-58
2024/02/11 02:38:53;;;;;;;;;;;;;;;;;;4963249;28;4638;-57
2024/02/11 02:41:18;;;;;;;;;;;;;;;;;;4958064;28;4566;-58
2024/02/11 02:43:45;;;;;;;;;;;;;;;;;;4965144;28;5183;-57
2024/02/11 02:46:10;;;;;;;;;;;;;;;;;;4963523;28;3887;-57
2024/02/11 02:48:36;;;;;;;;;;;;;;;;;;4964396;28;4895;-57
2024/02/11 02:51:01;;;;;;;;;;;;;;;;;;4963804;28;4714;-58
2024/02/11 02:53:26;;;;;;;;;;;;;;;;;;4957812;28;5058;-57
2024/02/11 02:55:52;;;;;;;;;;;;;;;;;;4968362;28;4504;-58
2024/02/11 02:58:17;;;;;;;;;;;;;;;;;;4968415;28;2352;-58
2024/02/11 03:00:43;;;;;;;;;;;;;;;;;;4962436;28;5060;-57
2024/02/11 03:03:09;;;;;;;;;;;;;;;;;;4962567;28;4649;-58
2024/02/11 03:05:40;;;;;;;;;;;;;;;;;;4967904;28;4725;-58
2024/02/11 03:08:06;;;;;;;;;;;;;;;;;;4967956;28;4707;-58
2024/02/11 03:10:31;;;;;;;;;;;;;;;;;;4960194;28;5074;-58
2024/02/11 03:12:57;;;;;;;;;;;;;;;;;;4970442;28;3862;-58
2024/02/11 03:15:22;;;;;;;;;;;;;;;;;;4967234;28;5227;-57
2024/02/11 03:17:47;;;;;;;;;;;;;;;;;;4960512;28;5109;-58
2024/02/11 03:20:15;;;;;;;;;;;;;;;;;;4963356;28;5244;-57
2024/02/11 03:22:40;;;;;;;;;;;;;;;;;;4964458;28;5145;-58
2024/02/11 03:25:06;;;;;;;;;;;;;;;;;;4962012;28;3487;-58
2024/02/11 03:27:34;;;;;;;;;;;;;;;;;;4962320;28;5077;-57
2024/02/11 03:29:59;;;;;;;;;;;;;;;;;;4965611;28;4926;-58
2024/02/11 03:32:24;;;;;;;;;;;;;;;;;;4947914;28;5174;-59
2024/02/11 03:34:50;;;;;;;;;;;;;;;;;;4950871;28;4705;-58
2024/02/11 03:37:16;;;;;;;;;;;;;;;;;;4967403;28;3509;-58
2024/02/11 03:39:42;;;;;;;;;;;;;;;;;;4963616;28;5571;-57
2024/02/11 03:42:07;;;;;;;;;;;;;;;;;;4967810;28;4849;-57
2024/02/11 03:44:32;;;;;;;;;;;;;;;;;;4961041;28;5187;-58
2024/02/11 03:47:02;;;;;;;;;;;;;;;;;;4967852;28;4978;-58
2024/02/11 03:49:28;;;;;;;;;;;;;;;;;;4963396;28;5497;-57
2024/02/11 03:51:55;;;;;;;;;;;;;;;;;;4952475;28;1593;-58
2024/02/11 03:54:22;;;;;;;;;;;;;;;;;;4968135;28;4739;-58
2024/02/11 03:56:48;;;;;;;;;;;;;;;;;;4968119;28;4659;-58
2024/02/11 03:59:13;;;;;;;;;;;;;;;;;;4964592;28;5075;-58
2024/02/11 04:01:39;;;;;;;;;;;;;;;;;;4964951;28;4512;-61
2024/02/11 04:04:04;;;;;;;;;;;;;;;;;;4959839;28;3445;-58
2024/02/11 04:06:30;;;;;;;;;;;;;;;;;;4966351;28;4904;-59
2024/02/11 04:08:56;;;;;;;;;;;;;;;;;;4959382;28;4552;-59
2024/02/11 04:11:22;;;;;;;;;;;;;;;;;;4964692;28;5081;-58
2024/02/11 04:13:48;;;;;;;;;;;;;;;;;;4964277;28;4531;-58
2024/02/11 04:16:16;;;;;;;;;;;;;;;;;;4961876;28;3444;-58
2024/02/11 04:18:47;;;;;;;;;;;;;;;;;;4967340;28;5070;-59
2024/02/11 04:21:15;;;;;;;;;;;;;;;;;;4960615;28;4500;-59
2024/02/11 04:23:40;;;;;;;;;;;;;;;;;;4961308;28;4615;-58
2024/02/11 04:26:08;;;;;;;;;;;;;;;;;;4963992;28;5107;-58
2024/02/11 04:28:35;;;;;;;;;;;;;;;;;;4961978;28;4949;-60
2024/02/11 04:31:03;;;;;;;;;;;;;;;;;;4964164;28;3414;-58
2024/02/11 04:33:29;;;;;;;;;;;;;;;;;;4965736;28;5086;-58
2024/02/11 04:35:54;;;;;;;;;;;;;;;;;;4945802;28;5215;-58
2024/02/11 04:38:19;;;;;;;;;;;;;;;;;;4959122;28;4782;-59
2024/02/11 04:40:45;;;;;;;;;;;;;;;;;;4961441;28;5087;-58
2024/02/11 04:43:10;;;;;;;;;;;;;;;;;;4963663;28;3404;-58
2024/02/11 04:45:37;;;;;;;;;;;;;;;;;;4964702;28;5083;-59
2024/02/11 04:48:03;;;;;;;;;;;;;;;;;;4963201;28;5061;-58
2024/02/11 04:50:29;;;;;;;;;;;;;;;;;;4965337;28;4908;-58
2024/02/11 04:52:55;;;;;;;;;;;;;;;;;;4942632;28;5184;-58
2024/02/11 04:55:24;;;;;;;;;;;;;;;;;;4966094;28;4680;-58
2024/02/11 04:57:58;;;;;;;;;;;;;;;;;;4961843;28;3451;-57
2024/02/11 05:00:24;;;;;;;;;;;;;;;;;;4957391;28;5041;-58
2024/02/11 05:02:58;;;;;;;;;;;;;;;;;;4967095;28;5162;-59
2024/02/11 05:05:28;;;;;;;;;;;;;;;;;;4964563;28;5172;-59
2024/02/11 05:07:54;;;;;;;;;;;;;;;;;;4963119;28;5067;-58
2024/02/11 05:10:21;;;;;;;;;;;;;;;;;;4963602;28;4543;-58
2024/02/11 05:12:47;;;;;;;;;;;;;;;;;;4966651;28;3642;-58
2024/02/11 05:15:14;;;;;;;;;;;;;;;;;;4966916;28;5100;-58
2024/02/11 05:17:40;;;;;;;;;;;;;;;;;;4965573;28;5224;-59
2024/02/11 05:20:12;;;;;;;;;;;;;;;;;;4966366;28;5153;-58
2024/02/11 05:22:43;;;;;;;;;;;;;;;;;;4969296;28;5593;-59
2024/02/11 05:25:09;;;;;;;;;;;;;;;;;;4968995;28;1059;-58
2024/02/11 05:27:34;;;;;;;;;;;;;;;;;;4965690;28;4962;-58
2024/02/11 05:30:00;;;;;;;;;;;;;;;;;;4968288;28;4596;-58
2024/02/11 05:32:25;;;;;;;;;;;;;;;;;;4967086;28;4690;-58
2024/02/11 05:34:52;;;;;;;;;;;;;;;;;;4965104;28;4576;-59
2024/02/11 05:37:18;;;;;;;;;;;;;;;;;;4972375;28;1071;-59
2024/02/11 05:39:44;;;;;;;;;;;;;;;;;;4958584;28;5077;-59
2024/02/11 05:42:11;;;;;;;;;;;;;;;;;;4961780;28;5051;-58
2024/02/11 05:44:36;;;;;;;;;;;;;;;;;;4969116;28;4531;-59
2024/02/11 05:47:01;;;;;;;;;;;;;;;;;;4965006;28;5120;-58
2024/02/11 05:49:27;;;;;;;;;;;;;;;;;;4967308;28;4991;-58
2024/02/11 05:51:53;;;;;;;;;;;;;;;;;;4964016;28;3437;-58
2024/02/11 05:54:18;;;;;;;;;;;;;;;;;;4957558;28;5190;-58
2024/02/11 05:56:48;;;;;;;;;;;;;;;;;;4969420;28;5186;-58
2024/02/11 05:59:14;;;;;;;;;;;;;;;;;;4960046;28;5084;-59
2024/02/11 06:01:40;;;;;;;;;;;;;;;;;;4964335;28;4959;-60
2024/02/11 06:04:05;;;;;;;;;;;;;;;;;;4945724;28;3462;-58
2024/02/11 06:06:30;;;;;;;;;;;;;;;;;;4963093;28;4719;-61
2024/02/11 06:08:57;;;;;;;;;;;;;;;;;;4969642;28;5153;-59
2024/02/11 06:11:23;;;;;;;;;;;;;;;;;;4962690;28;4525;-58
2024/02/11 06:13:48;;;;;;;;;;;;;;;;;;4966364;28;4697;-59
2024/02/11 06:16:14;;;;;;;;;;;;;;;;;;4951973;28;1348;-58
2024/02/11 06:18:39;;;;;;;;;;;;;;;;;;4958586;28;5230;-58
2024/02/11 06:21:05;;;;;;;;;;;;;;;;;;4959534;28;5276;-58
2024/02/11 06:23:31;;;;;;;;;;;;;;;;;;4964443;28;4887;-58
2024/02/11 06:26:02;;;;;;;;;;;;;;;;;;4971054;28;5390;-58
2024/02/11 06:28:27;;;;;;;;;;;;;;;;;;4963305;28;5207;-59
2024/02/11 06:30:53;;;;;;;;;;;;;;;;;;4963836;28;3294;-58
2024/02/11 06:33:19;;;;;;;;;;;;;;;;;;4958086;28;5002;-58
2024/02/11 06:35:44;;;;;;;;;;;;;;;;;;4963356;28;5185;-58
2024/02/11 06:38:12;;;;;;;;;;;;;;;;;;4967256;28;5084;-59
2024/02/11 06:40:38;;;;;;;;;;;;;;;;;;4958153;28;4679;-59
2024/02/11 06:43:10;;;;;;;;;;;;;;;;;;4953086;28;3420;-58
2024/02/11 06:45:36;;;;;;;;;;;;;;;;;;4962057;28;5092;-60
2024/02/11 06:48:03;;;;;;;;;;;;;;;;;;4964064;28;4545;-58
2024/02/11 06:50:29;;;;;;;;;;;;;;;;;;4952972;28;4813;-58
2024/02/11 06:52:54;;;;;;;;;;;;;;;;;;4965436;28;4583;-58
2024/02/11 06:55:19;;;;;;;;;;;;;;;;;;4966098;28;5264;-58
2024/02/11 06:57:45;;;;;;;;;;;;;;;;;;4962665;28;3315;-59
2024/02/11 07:00:11;;;;;;;;;;;;;;;;;;4966741;28;4991;-57
2024/02/11 07:02:36;;;;;;;;;;;;;;;;;;4963450;28;5060;-58
2024/02/11 07:05:05;;;;;;;;;;;;;;;;;;4969475;28;5064;-59
2024/02/11 07:07:31;;;;;;;;;;;;;;;;;;4950677;28;5085;-62
2024/02/11 07:09:56;;;;;;;;;;;;;;;;;;4968872;28;3593;-58
2024/02/11 07:12:21;;;;;;;;;;;;;;;;;;4968224;28;5006;-60
2024/02/11 07:14:47;;;;;;;;;;;;;;;;;;4950272;28;4834;-68
2024/02/11 07:17:14;;;;;;;;;;;;;;;;;;4953985;28;4825;-66
2024/02/11 07:19:40;;;;;;;;;;;;;;;;;;4965388;28;5111;-71
2024/02/11 07:22:05;;;;;;;;;;;;;;;;;;4964099;28;4103;-67
2024/02/11 07:24:31;;;;;;;;;;;;;;;;;;4956462;28;4563;-70
2024/02/11 07:26:56;;;;;;;;;;;;;;;;;;4946239;28;5178;-69
2024/02/11 07:29:24;;;;;;;;;;;;;;;;;;4966436;28;5160;-69
2024/02/11 07:31:49;;;;;;;;;;;;;;;;;;4954526;28;4528;-66
2024/02/11 07:34:14;;;;;;;;;;;;;;;;;;4963118;28;3502;-69
2024/02/11 07:36:40;;;;;;;;;;;;;;;;;;4959912;28;4946;-59
2024/02/11 07:39:05;;;;;;;;;;;;;;;;;;4962997;28;4794;-59
2024/02/11 07:41:31;;;;;;;;;;;;;;;;;;4924303;28;5536;-59
2024/02/11 07:43:56;;;;;;;;;;;;;;;;;;4945258;28;3510;-60
2024/02/11 07:46:21;;;;;;;;;;;;;;;;;;4960453;28;4992;-61
2024/02/11 07:48:48;;;;;;;;;;;;;;;;;;4961525;28;4547;-67
2024/02/11 07:51:16;;;;;;;;;;;;;;;;;;4966464;28;5025;-65
2024/02/11 07:53:41;;;;;;;;;;;;;;;;;;4957606;28;3542;-66
2024/02/11 07:56:22;;;;;;;;;;;;;;;;;;4963902;28;2029;-66
2024/02/11 07:58:47;;;;;;;;;;;;;;;;;;4949047;28;5868;-67
2024/02/11 08:01:12;;;;;;;;;;;;;;;;;;4963549;28;4855;-67
2024/02/11 08:03:38;;;;;;;;;;;;;;;;;;4951677;28;4728;-65
2024/02/11 08:06:09;;;;;;;;;;;;;;;;;;4957747;28;3500;-67
2024/02/11 08:08:37;;;;;;;;;;;;;;;;;;4962644;28;5898;-66
2024/02/11 08:11:03;;;;;;;;;;;;;;;;;;4964289;28;4973;-66
2024/02/11 08:13:28;;;;;;;;;;;;;;;;;;4957087;28;4717;-67
2024/02/11 08:15:53;;;;;;;;;;;;;;;;;;4960352;28;4964;-65
2024/02/11 08:18:19;;;;;;;;;;;;;;;;;;4960551;28;5211;-59
2024/02/11 08:20:45;;;;;;;;;;;;;;;;;;4964868;28;3469;-65
2024/02/11 08:23:10;;;;;;;;;;;;;;;;;;4968218;28;4878;-65
2024/02/11 08:25:35;;;;;;;;;;;;;;;;;;4957837;28;4564;-66
2024/02/11 08:28:01;;;;;;;;;;;;;;;;;;4959743;28;5245;-64
2024/02/11 08:30:26;;;;;;;;;;;;;;;;;;4945619;28;5119;-67
2024/02/11 08:32:52;;;;;;;;;;;;;;;;;;4965123;28;3160;-58
2024/02/11 08:35:18;;;;;;;;;;;;;;;;;;4964433;28;5067;-58
2024/02/11 08:37:43;;;;;;;;;;;;;;;;;;4963585;28;5226;-58
2024/02/11 08:40:10;;;;;;;;;;;;;;;;;;4959330;28;5107;-58
2024/02/11 08:42:36;;;;;;;;;;;;;;;;;;4949007;28;5617;-58
2024/02/11 08:45:01;;;;;;;;;;;;;;;;;;4968443;28;1067;-58
2024/02/11 08:47:26;;;;;;;;;;;;;;;;;;4963165;28;5149;-59
2024/02/11 08:49:52;;;;;;;;;;;;;;;;;;4948992;28;4504;-58
2024/02/11 08:52:17;;;;;;;;;;;;;;;;;;4964516;28;5043;-58
2024/02/11 08:54:42;;;;;;;;;;;;;;;;;;4963425;28;4693;-59
2024/02/11 08:57:09;;;;;;;;;;;;;;;;;;4963115;28;4826;-58
2024/02/11 08:59:37;;;;;;;;;;;;;;;;;;4962513;28;1906;-59
2024/02/11 09:02:03;;;;;;;;;;;;;;;;;;4963476;28;4745;-59
2024/02/11 09:04:28;;;;;;;;;;;;;;;;;;4963563;28;5229;-60
2024/02/11 09:06:55;;;;;;;;;;;;;;;;;;4962182;28;5128;-61
2024/02/11 09:09:25;;;;;;;;;;;;;;;;;;4963509;28;5209;-76
2024/02/11 09:11:52;;;;;;;;;;;;;;;;;;4953382;28;3568;-58
2024/02/11 09:14:17;;;;;;;;;;;;;;;;;;4962804;28;5115;-57
2024/02/11 09:16:43;;;;;;;;;;;;;;;;;;4965950;28;4913;-58
2024/02/11 09:19:08;;;;;;;;;;;;;;;;;;4957768;28;5115;-59
2024/02/11 09:21:33;;;;;;;;;;;;;;;;;;4964012;28;5022;-58
2024/02/11 09:23:58;;;;;;;;;;;;;;;;;;4961335;28;3227;-59
2024/02/11 09:26:24;;;;;;;;;;;;;;;;;;4965295;28;4784;-58
2024/02/11 09:28:49;;;;;;;;;;;;;;;;;;4967706;28;4561;-57
2024/02/11 09:31:15;;;;;;;;;;;;;;;;;;4967692;28;4990;-58
2024/02/11 09:33:40;;;;;;;;;;;;;;;;;;4967894;28;5194;-57
2024/02/11 09:36:06;;;;;;;;;;;;;;;;;;4957989;28;3943;-58
2024/02/11 09:38:31;;;;;;;;;;;;;;;;;;4968341;28;4948;-58
2024/02/11 09:40:57;;;;;;;;;;;;;;;;;;4966748;28;4949;-58
2024/02/11 09:43:22;;;;;;;;;;;;;;;;;;4967874;28;5065;-58
2024/02/11 09:45:48;;;;;;;;;;;;;;;;;;4950144;28;5063;-57
2024/02/11 09:48:14;;;;;;;;;;;;;;;;;;4935057;28;5241;-58
2024/02/11 09:50:41;;;;;;;;;;;;;;;;;;4967506;28;2147;-58
2024/02/11 09:53:07;;;;;;;;;;;;;;;;;;4942153;28;4986;-57
2024/02/11 09:55:32;;;;;;;;;;;;;;;;;;4964222;28;4771;-57
2024/02/11 09:57:57;;;;;;;;;;;;;;;;;;4965560;28;4786;-57
2024/02/11 10:00:24;;;;;;;;;;;;;;;;;;4971259;28;4651;-56
2024/02/11 10:02:49;;;;;;;;;;;;;;;;;;4954125;28;1194;-57
2024/02/11 10:05:15;;;;;;;;;;;;;;;;;;4971113;28;5743;-57
2024/02/11 10:07:43;;;;;;;;;;;;;;;;;;4970034;28;4588;-56
2024/02/11 10:10:11;;;;;;;;;;;;;;;;;;4965555;28;4711;-56
2024/02/11 10:12:40;;;;;;;;;;;;;;;;;;4950624;28;5057;-57
2024/02/11 10:15:09;;;;;;;;;;;;;;;;;;4972053;28;1127;-57
2024/02/11 10:17:34;;;;;;;;;;;;;;;;;;4958046;28;4401;-58
2024/02/11 10:20:00;;;;;;;;;;;;;;;;;;4968673;28;5226;-56
2024/02/11 10:22:27;;;;;;;;;;;;;;;;;;4970468;28;5098;-56
2024/02/11 10:24:52;;;;;;;;;;;;;;;;;;4952592;28;5234;-57
2024/02/11 10:27:18;;;;;;;;;;;;;;;;;;4966913;28;4904;-56
2024/02/11 10:29:46;;;;;;;;;;;;;;;;;;4970291;28;1084;-58
2024/02/11 10:32:14;;;;;;;;;;;;;;;;;;4962362;28;5162;-58
2024/02/11 10:34:43;;;;;;;;;;;;;;;;;;4967682;28;5139;-58
2024/02/11 10:37:12;;;;;;;;;;;;;;;;;;4966304;28;4741;-58
2024/02/11 10:39:38;;;;;;;;;;;;;;;;;;4963964;28;5182;-58
2024/02/11 10:42:04;;;;;;;;;;;;;;;;;;4966902;28;3139;-58
2024/02/11 10:44:29;;;;;;;;;;;;;;;;;;4966318;28;4643;-58
2024/02/11 10:46:56;;;;;;;;;;;;;;;;;;4953124;28;5178;-56
2024/02/11 10:49:21;;;;;;;;;;;;;;;;;;4970217;28;5196;-56
2024/02/11 10:51:48;;;;;;;;;;;;;;;;;;4965683;28;5328;-56
2024/02/11 10:54:14;;;;;;;;;;;;;;;;;;4949084;28;5176;-56
2024/02/11 10:56:39;;;;;;;;;;;;;;;;;;4969871;28;2250;-57
2024/02/11 10:59:37;;;;;;;;;;;;;;;;;;4949560;28;5290;-56
2024/02/11 11:02:02;;;;;;;;;;;;;;;;;;4952766;28;4564;-57
2024/02/11 11:04:28;;;;;;;;;;;;;;;;;;4950891;28;4998;-56
2024/02/11 11:06:53;;;;;;;;;;;;;;;;;;4963663;28;4705;-55
2024/02/11 11:09:19;;;;;;;;;;;;;;;;;;4962719;28;5222;-56
2024/02/11 11:11:45;;;;;;;;;;;;;;;;;;4962478;28;3453;-57
2024/02/11 11:14:12;;;;;;;;;;;;;;;;;;4947443;28;4529;-56
2024/02/11 11:16:41;;;;;;;;;;;;;;;;;;4954611;28;5557;-56
2024/02/11 11:19:08;;;;;;;;;;;;;;;;;;4961516;28;4549;-57
2024/02/11 11:21:34;;;;;;;;;;;;;;;;;;4963644;28;5189;-57
2024/02/11 11:24:02;;;;;;;;;;;;;;;;;;4961825;28;3140;-57
2024/02/11 11:26:30;;;;;;;;;;;;;;;;;;4962312;28;5034;-57
2024/02/11 11:29:02;;;;;;;;;;;;;;;;;;4961672;28;4651;-64
2024/02/11 11:31:34;;;;;;;;;;;;;;;;;;4949471;28;5085;-58
2024/02/11 11:34:00;;;;;;;;;;;;;;;;;;4955940;28;5212;-59
2024/02/11 11:36:25;;;;;;;;;;;;;;;;;;4967714;28;5124;-59
2024/02/11 11:38:53;;;;;;;;;;;;;;;;;;4962448;28;3425;-59
2024/02/11 11:41:19;;;;;;;;;;;;;;;;;;4962486;28;5145;-59
2024/02/11 11:43:44;;;;;;;;;;;;;;;;;;4949040;28;4991;-57
2024/02/11 11:46:09;;;;;;;;;;;;;;;;;;4963019;28;5113;-59
2024/02/11 11:48:35;;;;;;;;;;;;;;;;;;4968537;28;4788;-57
2024/02/11 11:51:01;;;;;;;;;;;;;;;;;;4950605;28;3211;-58
2024/02/11 11:53:27;;;;;;;;;;;;;;;;;;4960978;28;4926;-58
2024/02/11 11:55:53;;;;;;;;;;;;;;;;;;4965672;28;5296;-58
2024/02/11 11:58:28;;;;;;;;;;;;;;;;;;4942590;28;4658;-58
2024/02/11 12:00:56;;;;;;;;;;;;;;;;;;4967494;28;5067;-64
2024/02/11 12:03:22;;;;;;;;;;;;;;;;;;4949571;28;4507;-64
2024/02/11 12:05:47;;;;;;;;;;;;;;;;;;4963380;28;1154;-64
2024/02/11 12:08:14;;;;;;;;;;;;;;;;;;4948864;28;4848;-64
2024/02/11 12:10:39;;;;;;;;;;;;;;;;;;4962972;28;5066;-64
2024/02/11 12:13:06;;;;;;;;;;;;;;;;;;4950914;28;5294;-65
2024/02/11 12:15:31;;;;;;;;;;;;;;;;;;4965264;28;5149;-64
2024/02/11 12:17:59;;;;;;;;;;;;;;;;;;4946196;28;3410;-64
2024/02/11 12:20:26;;;;;;;;;;;;;;;;;;4964049;28;5033;-64
2024/02/11 12:22:51;;;;;;;;;;;;;;;;;;4964767;28;4693;-64
2024/02/11 12:25:20;;;;;;;;;;;;;;;;;;4964193;28;6484;-65
2024/02/11 12:27:49;;;;;;;;;;;;;;;;;;4962014;28;5064;-63
2024/02/11 12:30:22;;;;;;;;;;;;;;;;;;4959385;28;5075;-66
2024/02/11 12:32:48;;;;;;;;;;;;;;;;;;4962738;28;3897;-66
2024/02/11 12:35:13;;;;;;;;;;;;;;;;;;4957941;28;4917;-65
2024/02/11 12:37:39;;;;;;;;;;;;;;;;;;4964291;28;4652;-66
2024/02/11 12:40:05;;;;;;;;;;;;;;;;;;4966142;28;5087;-65
2024/02/11 12:42:31;;;;;;;;;;;;;;;;;;4967390;28;4660;-66
2024/02/11 12:44:56;;;;;;;;;;;;;;;;;;4969408;28;1146;-66
2024/02/11 12:47:22;;;;;;;;;;;;;;;;;;4967932;28;5138;-66
2024/02/11 12:49:48;;;;;;;;;;;;;;;;;;4968832;28;4651;-66
2024/02/11 12:52:13;;;;;;;;;;;;;;;;;;4959708;28;4871;-65
2024/02/11 12:54:38;;;;;;;;;;;;;;;;;;4948928;28;5116;-65
2024/02/11 12:57:05;;;;;;;;;;;;;;;;;;4964557;28;3364;-65
2024/02/11 12:59:30;;;;;;;;;;;;;;;;;;4963855;28;4738;-65
2024/02/11 13:01:57;;;;;;;;;;;;;;;;;;4958427;28;5118;-65
2024/02/11 13:04:22;;;;;;;;;;;;;;;;;;4964166;28;4553;-65
2024/02/11 13:06:47;;;;;;;;;;;;;;;;;;4968452;28;4845;-67
2024/02/11 13:09:13;;;;;;;;;;;;;;;;;;4964884;28;5152;-65
2024/02/11 13:11:39;;;;;;;;;;;;;;;;;;4952469;28;3465;-65
2024/02/11 13:14:04;;;;;;;;;;;;;;;;;;4959230;28;5123;-67
2024/02/11 13:16:30;;;;;;;;;;;;;;;;;;4963317;28;4950;-65
2024/02/11 13:18:55;;;;;;;;;;;;;;;;;;4965397;28;5106;-62
2024/02/11 13:21:20;;;;;;;;;;;;;;;;;;4942400;28;4552;-62
2024/02/11 13:23:47;;;;;;;;;;;;;;;;;;4962620;28;3986;-57
2024/02/11 13:26:13;;;;;;;;;;;;;;;;;;4961349;28;4659;-57
2024/02/11 13:28:38;;;;;;;;;;;;;;;;;;4965922;28;5084;-57
2024/02/11 13:31:04;;;;;;;;;;;;;;;;;;4951589;28;4761;-58
2024/02/11 13:33:31;;;;;;;;;;;;;;;;;;4969443;28;5114;-58
2024/02/11 13:36:00;;;;;;;;;;;;;;;;;;4954766;28;2290;-58
2024/02/11 13:38:25;;;;;;;;;;;;;;;;;;4971375;28;4440;-58
2024/02/11 13:40:51;;;;;;;;;;;;;;;;;;4970025;28;5239;-58
2024/02/11 13:43:17;;;;;;;;;;;;;;;;;;4968410;28;5695;-58
2024/02/11 13:45:43;;;;;;;;;;;;;;;;;;4972330;28;5081;-57
2024/02/11 13:48:08;;;;;;;;;;;;;;;;;;4964152;28;5194;-58
2024/02/11 13:50:33;;;;;;;;;;;;;;;;;;4969673;28;1396;-57
2024/02/11 13:53:01;;;;;;;;;;;;;;;;;;4972017;28;4521;-57
2024/02/11 13:55:27;;;;;;;;;;;;;;;;;;4971452;28;5111;-58
2024/02/11 13:57:52;;;;;;;;;;;;;;;;;;4962798;28;4598;-57
2024/02/11 14:00:18;;;;;;;;;;;;;;;;;;4966247;28;5143;-58
2024/02/11 14:02:43;;;;;;;;;;;;;;;;;;4946338;28;3436;-57
2024/02/11 14:05:12;;;;;;;;;;;;;;;;;;4950088;28;4962;-58
2024/02/11 14:07:38;;;;;;;;;;;;;;;;;;4967586;28;5092;-57
2024/02/11 14:10:05;;;;;;;;;;;;;;;;;;4970461;28;5371;-57
2024/02/11 14:12:33;;;;;;;;;;;;;;;;;;4969503;28;5145;-58
2024/02/11 14:14:58;;;;;;;;;;;;;;;;;;4963792;28;1174;-58
2024/02/11 14:17:25;;;;;;;;;;;;;;;;;;4966163;28;4870;-57
2024/02/11 14:19:50;;;;;;;;;;;;;;;;;;4952834;28;4985;-57
2024/02/11 14:22:16;;;;;;;;;;;;;;;;;;4963375;28;5184;-58
2024/02/11 14:24:42;;;;;;;;;;;;;;;;;;4963871;28;4540;-57
2024/02/11 14:27:07;;;;;;;;;;;;;;;;;;4966263;28;5185;-57
2024/02/11 14:29:37;;;;;;;;;;;;;;;;;;4969643;28;1104;-58
2024/02/11 14:32:04;;;;;;;;;;;;;;;;;;4950505;28;5314;-57
2024/02/11 14:34:30;;;;;;;;;;;;;;;;;;4967943;28;4733;-59
2024/02/11 14:36:59;;;;;;;;;;;;;;;;;;4971236;28;5161;-58
2024/02/11 14:39:25;;;;;;;;;;;;;;;;;;4971035;28;5253;-58
2024/02/11 14:41:51;;;;;;;;;;;;;;;;;;4970881;28;3369;-58
2024/02/11 14:44:19;;;;;;;;;;;;;;;;;;4958175;28;5193;-58
2024/02/11 14:46:45;;;;;;;;;;;;;;;;;;4969301;28;4977;-58
2024/02/11 14:49:10;;;;;;;;;;;;;;;;;;4966984;28;5421;-58
2024/02/11 14:51:39;;;;;;;;;;;;;;;;;;4947858;28;4653;-57
2024/02/11 14:54:04;;;;;;;;;;;;;;;;;;4966226;28;3542;-57
2024/02/11 14:56:30;;;;;;;;;;;;;;;;;;4966967;28;4455;-58
2024/02/11 14:58:55;;;;;;;;;;;;;;;;;;4968160;28;5394;-57
2024/02/11 15:01:21;;;;;;;;;;;;;;;;;;4968338;28;5145;-58
2024/02/11 15:03:46;;;;;;;;;;;;;;;;;;4967842;28;5327;-57
2024/02/11 15:06:12;;;;;;;;;;;;;;;;;;4966284;28;5146;-57
2024/02/11 15:08:41;;;;;;;;;;;;;;;;;;4968694;28;3805;-58
2024/02/11 15:11:06;;;;;;;;;;;;;;;;;;4950374;28;4526;-57
2024/02/11 15:13:33;;;;;;;;;;;;;;;;;;4970486;28;5011;-58
2024/02/11 15:15:58;;;;;;;;;;;;;;;;;;4949490;28;5095;-58
2024/02/11 15:18:24;;;;;;;;;;;;;;;;;;4950538;28;5109;-58
2024/02/11 15:20:49;;;;;;;;;;;;;;;;;;4937133;28;1610;-58
2024/02/11 15:23:15;;;;;;;;;;;;;;;;;;4950366;28;5216;-58
2024/02/11 15:25:41;;;;;;;;;;;;;;;;;;4962252;28;5054;-58
2024/02/11 15:28:07;;;;;;;;;;;;;;;;;;4962649;28;4996;-58
2024/02/11 15:30:32;;;;;;;;;;;;;;;;;;4956552;28;5428;-58
2024/02/11 15:32:58;;;;;;;;;;;;;;;;;;4951585;28;2140;-57
2024/02/11 15:35:26;;;;;;;;;;;;;;;;;;4960628;28;4642;-57
2024/02/11 15:37:52;;;;;;;;;;;;;;;;;;4964202;28;5391;-58
2024/02/11 15:40:18;;;;;;;;;;;;;;;;;;4965536;28;5172;-58
2024/02/11 15:42:43;;;;;;;;;;;;;;;;;;4969918;28;5576;-58
2024/02/11 15:45:08;;;;;;;;;;;;;;;;;;4965128;28;5351;-58
2024/02/11 15:47:35;;;;;;;;;;;;;;;;;;4968923;28;3287;-58
2024/02/11 15:50:01;;;;;;;;;;;;;;;;;;4963463;28;4918;-58
2024/02/11 15:52:27;;;;;;;;;;;;;;;;;;4969480;28;4788;-58
2024/02/11 15:54:52;;;;;;;;;;;;;;;;;;4962036;28;5088;-58
2024/02/11 15:57:20;;;;;;;;;;;;;;;;;;4967006;28;5217;-59
2024/02/11 15:59:45;;;;;;;;;;;;;;;;;;4949223;28;3362;-58
2024/02/11 16:02:11;;;;;;;;;;;;;;;;;;4964938;28;5083;-58
2024/02/11 16:04:36;;;;;;;;;;;;;;;;;;4966520;28;5000;-58
2024/02/11 16:07:02;;;;;;;;;;;;;;;;;;4962775;28;4891;-58
2024/02/11 16:09:28;;;;;;;;;;;;;;;;;;4963296;28;4558;-58
2024/02/11 16:11:53;;;;;;;;;;;;;;;;;;4967098;28;1114;-58
2024/02/11 16:14:22;;;;;;;;;;;;;;;;;;4965869;28;5056;-59
2024/02/11 16:16:48;;;;;;;;;;;;;;;;;;4967338;28;5100;-58
2024/02/11 16:19:13;;;;;;;;;;;;;;;;;;4949932;28;5099;-58
2024/02/11 16:21:39;;;;;;;;;;;;;;;;;;4967969;28;6333;-58
2024/02/11 16:24:04;;;;;;;;;;;;;;;;;;4968342;28;3365;-58
2024/02/11 16:26:34;;;;;;;;;;;;;;;;;;4963775;28;4434;-59
2024/02/11 16:29:00;;;;;;;;;;;;;;;;;;4947421;28;5116;-59
2024/02/11 16:31:25;;;;;;;;;;;;;;;;;;4960151;28;4614;-58
2024/02/11 16:33:50;;;;;;;;;;;;;;;;;;4964048;28;4561;-58
2024/02/11 16:36:16;;;;;;;;;;;;;;;;;;4961476;28;4980;-57
2024/02/11 16:38:42;;;;;;;;;;;;;;;;;;4963063;28;1910;-58
2024/02/11 16:41:09;;;;;;;;;;;;;;;;;;4967540;28;5145;-59
2024/02/11 16:43:34;;;;;;;;;;;;;;;;;;4967398;28;5230;-57
2024/02/11 16:45:59;;;;;;;;;;;;;;;;;;4966235;28;4950;-57
2024/02/11 16:48:26;;;;;;;;;;;;;;;;;;4963745;28;5158;-57
2024/02/11 16:50:53;;;;;;;;;;;;;;;;;;4941559;28;1422;-58
2024/02/11 16:53:18;;;;;;;;;;;;;;;;;;4968722;28;4540;-57
2024/02/11 16:55:45;;;;;;;;;;;;;;;;;;4966928;28;4696;-58